Time;durP1;ratioP1;P1;durP2;ratioP2;P2;SDS_P1;SDS_P2;PMS_P1;PMS_P2;Temp;Humidity;BMP_temperature;BMP_pressure;BME280_temperature;BME280_humidity;BME280_pressure;Samples;Min_cycle;Max_cycle;Signal;HPM_P1;HPM_P2
2021/08/09 00:01:33;;;;;;;1.45;1.35;;;13.20;90.00;;;;;;5020543;28;20038;-64
2021/08/09 00:03:59;;;;;;;3.47;1.40;;;13.30;90.10;;;;;;5025219;28;20764;-64
2021/08/09 00:06:24;;;;;;;2.25;1.50;;;13.20;90.40;;;;;;5004819;28;20625;-64
2021/08/09 00:08:50;;;;;;;1.65;1.50;;;13.10;90.90;;;;;;5010770;28;20785;-64
2021/08/09 00:11:16;;;;;;;3.35;1.52;;;13.10;91.00;;;;;;5008196;28;20064;-64
2021/08/09 00:13:41;;;;;;;3.17;1.70;;;13.10;91.30;;;;;;5011506;28;20053;-64
2021/08/09 00:16:07;;;;;;;1.63;1.52;;;13.00;91.50;;;;;;5006669;28;20054;-64
2021/08/09 00:18:33;;;;;;;1.35;1.25;;;13.00;91.60;;;;;;5013097;28;20034;-64
2021/08/09 00:20:58;;;;;;;2.08;1.08;;;13.10;91.10;;;;;;5009961;28;20029;-66
2021/08/09 00:23:24;;;;;;;1.10;1.00;;;13.10;90.10;;;;;;5008076;28;20032;-64
2021/08/09 00:25:50;;;;;;;0.90;0.90;;;13.10;90.00;;;;;;5006356;28;20030;-64
2021/08/09 00:28:16;;;;;;;1.23;1.20;;;13.00;90.00;;;;;;5023443;28;20033;-64
2021/08/09 00:30:41;;;;;;;1.30;1.20;;;13.00;90.00;;;;;;5009805;28;20043;-64
2021/08/09 00:33:07;;;;;;;2.35;1.10;;;12.90;90.40;;;;;;5011053;28;20029;-64
2021/08/09 00:35:33;;;;;;;2.40;1.40;;;13.00;90.60;;;;;;5005933;28;20193;-64
2021/08/09 00:37:59;;;;;;;1.85;1.27;;;13.00;90.50;;;;;;5008303;28;20030;-63
2021/08/09 00:40:24;;;;;;;1.58;1.48;;;13.00;90.50;;;;;;5006373;28;20029;-64
2021/08/09 00:42:50;;;;;;;1.63;1.25;;;12.90;90.70;;;;;;5004853;28;20046;-63
2021/08/09 00:45:17;;;;;;;1.52;1.42;;;12.90;90.70;;;;;;5008183;28;20072;-64
2021/08/09 00:47:43;;;;;;;2.28;1.40;;;13.00;90.80;;;;;;5011683;28;20021;-64
2021/08/09 00:50:09;;;;;;;1.40;1.30;;;12.90;90.90;;;;;;5008079;28;20470;-64
2021/08/09 00:52:35;;;;;;;1.38;1.13;;;12.80;90.80;;;;;;5007459;28;20037;-64
2021/08/09 00:55:01;;;;;;;1.48;1.38;;;12.80;90.80;;;;;;5004859;28;21865;-64
2021/08/09 00:57:27;;;;;;;1.80;1.70;;;12.80;90.90;;;;;;5018152;28;20037;-64
2021/08/09 00:59:53;;;;;;;1.90;1.48;;;12.90;90.90;;;;;;5001500;28;20103;-64
2021/08/09 01:02:22;;;;;;;1.60;1.33;;;12.90;90.50;;;;;;4999510;28;20042;-64
2021/08/09 01:04:47;;;;;;;1.83;1.27;;;12.90;90.20;;;;;;5002697;28;20605;-64
2021/08/09 01:07:13;;;;;;;2.30;1.50;;;12.80;90.20;;;;;;5000579;28;20034;-64
2021/08/09 01:09:51;;;;;;;1.23;1.23;;;12.80;90.50;;;;;;5001233;28;20038;-63
2021/08/09 01:12:35;;;;;;;1.30;1.20;;;12.80;90.60;;;;;;5002812;28;20018;-64
2021/08/09 01:15:23;;;;;;;3.42;1.50;;;12.70;90.60;;;;;;4999524;28;20037;-64
2021/08/09 01:17:51;;;;;;;1.15;1.15;;;12.80;90.90;;;;;;5017028;28;20482;-63
2021/08/09 01:20:32;;;;;;;;;;;12.70;90.80;;;;;;5004049;28;20034;-65
2021/08/09 01:23:31;;;;;;;1.58;1.30;;;12.80;90.70;;;;;;5002913;28;20016;-64
2021/08/09 01:26:03;;;;;;;1.45;1.35;;;12.90;90.50;;;;;;5003064;28;20523;-64
2021/08/09 01:28:32;;;;;;;1.20;1.10;;;12.80;90.20;;;;;;4999979;28;20030;-64
2021/08/09 01:30:59;;;;;;;2.38;1.27;;;12.80;90.40;;;;;;5000563;28;20034;-64
2021/08/09 01:33:27;;;;;;;1.45;1.30;;;12.80;90.10;;;;;;5004324;28;20042;-64
2021/08/09 01:35:55;;;;;;;1.25;1.15;;;12.80;89.90;;;;;;5002198;28;20030;-64
2021/08/09 01:38:22;;;;;;;;;;;12.70;90.20;;;;;;5006499;28;20080;-64
2021/08/09 01:40:48;;;;;;;1.38;1.10;;;12.60;90.10;;;;;;5006123;28;19917;-64
2021/08/09 01:43:15;;;;;;;1.38;1.27;;;12.60;90.00;;;;;;5005653;28;20045;-64
2021/08/09 01:45:42;;;;;;;1.52;1.40;;;12.60;90.00;;;;;;5005873;28;20100;-64
2021/08/09 01:48:09;;;;;;;1.27;1.17;;;12.60;90.20;;;;;;5004123;28;20046;-64
2021/08/09 01:50:35;;;;;;;2.47;1.60;;;12.60;90.60;;;;;;5003844;28;20022;-64
2021/08/09 01:53:03;;;;;;;1.30;1.20;;;12.50;91.00;;;;;;5007111;28;20215;-65
2021/08/09 01:55:29;;;;;;;2.28;1.63;;;12.60;90.90;;;;;;5021423;28;20022;-64
2021/08/09 01:57:55;;;;;;;2.15;1.38;;;12.70;90.90;;;;;;5010911;28;20060;-64
2021/08/09 02:00:21;;;;;;;1.83;1.27;;;12.70;91.20;;;;;;5009447;28;20517;-63
2021/08/09 02:02:48;;;;;;;1.20;1.10;;;12.60;91.00;;;;;;5012109;28;20048;-63
2021/08/09 02:05:15;;;;;;;3.00;1.75;;;12.60;90.70;;;;;;5011870;28;20046;-64
2021/08/09 02:07:46;;;;;;;1.50;1.40;;;12.60;90.70;;;;;;5024854;28;20061;-64
2021/08/09 02:10:21;;;;;;;1.42;1.33;;;12.70;90.70;;;;;;5009388;28;20087;-64
2021/08/09 02:13:14;;;;;;;2.90;1.70;;;12.60;91.20;;;;;;5027550;28;20026;-63
2021/08/09 02:16:00;;;;;;;2.30;1.73;;;12.60;91.40;;;;;;5026708;28;20462;-63
2021/08/09 02:18:39;;;;;;;2.00;1.55;;;12.60;91.20;;;;;;5012452;28;20048;-63
2021/08/09 02:21:09;;;;;;;1.77;1.67;;;12.70;91.10;;;;;;5010747;28;20076;-63
2021/08/09 02:23:38;;;;;;;1.67;1.58;;;12.70;91.50;;;;;;5010061;28;21937;-63
2021/08/09 02:26:06;;;;;;;1.98;1.40;;;12.70;91.40;;;;;;5014614;28;20029;-64
2021/08/09 02:28:34;;;;;;;2.78;1.20;;;12.70;91.30;;;;;;5011148;28;21811;-64
2021/08/09 02:31:04;;;;;;;1.80;1.17;;;12.80;91.10;;;;;;5011685;28;20042;-64
2021/08/09 02:33:30;;;;;;;1.10;1.10;;;12.70;90.70;;;;;;5011085;28;20068;-63
2021/08/09 02:35:58;;;;;;;1.90;1.20;;;12.70;90.60;;;;;;5009751;28;20032;-63
2021/08/09 02:38:25;;;;;;;0.88;0.88;;;12.70;90.80;;;;;;5011199;28;20464;-63
2021/08/09 02:40:51;;;;;;;1.50;1.30;;;12.70;90.90;;;;;;5015258;28;20064;-64
2021/08/09 02:43:17;;;;;;;1.20;1.10;;;12.70;90.70;;;;;;5019942;28;20017;-63
2021/08/09 02:45:43;;;;;;;1.48;1.10;;;12.70;90.80;;;;;;5012617;28;20515;-63
2021/08/09 02:48:09;;;;;;;1.33;1.27;;;12.70;90.80;;;;;;5009623;28;20037;-63
2021/08/09 02:50:35;;;;;;;3.50;1.65;;;12.70;91.00;;;;;;5011522;28;20044;-64
2021/08/09 02:53:01;;;;;;;1.88;1.33;;;12.70;91.10;;;;;;5009620;28;20014;-64
2021/08/09 02:55:27;;;;;;;1.42;1.33;;;12.80;91.20;;;;;;5008765;28;20076;-65
2021/08/09 02:57:54;;;;;;;2.00;1.67;;;12.80;91.20;;;;;;5005365;28;20522;-64
2021/08/09 03:00:19;;;;;;;1.10;1.05;;;12.80;91.00;;;;;;5003635;28;20037;-63
2021/08/09 03:02:46;;;;;;;1.27;1.17;;;12.80;91.00;;;;;;5023739;28;20502;-64
2021/08/09 03:05:13;;;;;;;1.23;1.23;;;12.70;91.20;;;;;;5024271;28;20540;-63
2021/08/09 03:07:41;;;;;;;1.52;1.23;;;12.70;91.30;;;;;;5025005;28;20033;-63
2021/08/09 03:10:09;;;;;;;3.47;1.30;;;12.80;91.20;;;;;;5025524;28;20022;-63
2021/08/09 03:12:35;;;;;;;1.20;1.20;;;12.80;91.20;;;;;;5023659;28;20030;-65
2021/08/09 03:15:02;;;;;;;2.47;1.40;;;12.80;91.10;;;;;;5023010;28;20177;-64
2021/08/09 03:17:28;;;;;;;1.40;1.30;;;12.80;91.00;;;;;;5021729;28;20470;-64
2021/08/09 03:19:54;;;;;;;1.48;1.38;;;12.80;91.00;;;;;;5009610;28;20047;-65
2021/08/09 03:22:20;;;;;;;5.30;1.92;;;12.80;91.00;;;;;;5023492;28;21136;-64
2021/08/09 03:24:46;;;;;;;1.42;1.33;;;12.80;90.90;;;;;;5028771;28;20904;-64
2021/08/09 03:27:12;;;;;;;2.05;1.40;;;12.80;90.70;;;;;;5008426;28;20049;-64
2021/08/09 03:29:38;;;;;;;2.15;1.35;;;12.70;91.20;;;;;;5025523;28;20018;-64
2021/08/09 03:32:04;;;;;;;1.80;1.40;;;12.70;91.10;;;;;;5010399;28;20182;-64
2021/08/09 03:34:29;;;;;;;1.42;1.33;;;12.70;91.00;;;;;;5025362;28;20247;-64
2021/08/09 03:36:55;;;;;;;1.20;1.10;;;12.80;91.00;;;;;;5026368;28;20139;-64
2021/08/09 03:39:21;;;;;;;1.70;1.60;;;12.80;91.10;;;;;;5024477;28;20027;-64
2021/08/09 03:41:47;;;;;;;1.17;1.17;;;12.70;90.90;;;;;;5022938;28;20144;-66
2021/08/09 03:44:12;;;;;;;5.28;1.40;;;12.70;91.00;;;;;;5022095;28;20088;-64
2021/08/09 03:46:38;;;;;;;2.35;1.17;;;12.70;91.10;;;;;;5026437;28;20398;-63
2021/08/09 03:49:07;;;;;;;1.52;1.40;;;12.70;91.00;;;;;;5023805;28;20025;-63
2021/08/09 03:51:37;;;;;;;1.00;1.00;;;12.70;91.30;;;;;;5021667;28;20025;-64
2021/08/09 03:54:03;;;;;;;0.82;0.82;;;12.70;91.20;;;;;;5022610;28;20099;-64
2021/08/09 03:56:29;;;;;;;0.80;0.80;;;12.60;90.90;;;;;;5025413;28;20028;-63
2021/08/09 03:58:54;;;;;;;1.10;1.10;;;12.50;90.80;;;;;;5029781;28;20662;-63
2021/08/09 04:01:20;;;;;;;2.58;1.40;;;12.50;91.00;;;;;;5026746;28;20508;-63
2021/08/09 04:03:46;;;;;;;1.23;1.13;;;12.40;91.70;;;;;;5028436;28;20080;-64
2021/08/09 04:06:11;;;;;;;1.65;1.27;;;12.40;92.10;;;;;;5026607;28;20079;-64
2021/08/09 04:08:40;;;;;;;1.73;1.20;;;12.40;91.80;;;;;;5033401;28;20040;-64
2021/08/09 04:11:06;;;;;;;1.40;1.30;;;12.40;91.80;;;;;;5024294;28;20026;-64
2021/08/09 04:13:32;;;;;;;2.90;1.35;;;12.40;91.90;;;;;;5028078;28;20071;-64
2021/08/09 04:15:57;;;;;;;1.65;1.50;;;12.50;91.90;;;;;;5033281;28;20378;-64
2021/08/09 04:18:23;;;;;;;2.70;1.30;;;12.50;91.90;;;;;;5035306;28;20036;-63
2021/08/09 04:20:48;;;;;;;1.98;1.67;;;12.60;91.70;;;;;;5028102;28;20025;-64
2021/08/09 04:23:14;;;;;;;2.08;1.50;;;12.60;91.60;;;;;;5029596;28;20029;-64
2021/08/09 04:25:39;;;;;;;4.40;1.30;;;12.70;91.70;;;;;;5028177;28;20104;-64
2021/08/09 04:28:05;;;;;;;2.28;1.60;;;12.70;91.60;;;;;;5026204;28;20029;-64
2021/08/09 04:30:31;;;;;;;4.18;1.55;;;12.70;91.80;;;;;;5033819;28;20509;-67
2021/08/09 04:32:56;;;;;;;2.45;1.50;;;12.70;91.90;;;;;;5030673;28;20479;-64
2021/08/09 04:35:22;;;;;;;1.83;1.73;;;12.70;91.90;;;;;;5030258;28;20059;-64
2021/08/09 04:37:47;;;;;;;2.17;1.38;;;12.80;91.80;;;;;;5032488;28;20064;-64
2021/08/09 04:40:14;;;;;;;1.42;1.30;;;12.80;91.80;;;;;;5029657;28;20041;-64
2021/08/09 04:42:40;;;;;;;1.50;1.40;;;12.80;91.60;;;;;;5029986;28;20083;-64
2021/08/09 04:45:06;;;;;;;3.25;1.52;;;12.80;91.60;;;;;;5027093;28;20033;-64
2021/08/09 04:47:32;;;;;;;1.20;1.20;;;12.80;91.60;;;;;;5028715;28;20536;-64
2021/08/09 04:49:57;;;;;;;1.50;1.40;;;12.80;91.60;;;;;;5027134;28;20029;-64
2021/08/09 04:52:23;;;;;;;1.13;1.13;;;12.80;91.50;;;;;;5031563;28;20446;-64
2021/08/09 04:54:49;;;;;;;1.48;1.38;;;12.70;91.80;;;;;;5015623;28;20030;-64
2021/08/09 04:57:14;;;;;;;1.35;1.25;;;12.60;91.90;;;;;;5025081;28;20065;-64
2021/08/09 04:59:40;;;;;;;2.25;1.40;;;12.60;92.00;;;;;;5023755;28;20068;-64
2021/08/09 05:02:05;;;;;;;4.82;1.50;;;12.60;92.00;;;;;;5023003;28;20134;-64
2021/08/09 05:04:31;;;;;;;1.40;1.30;;;12.70;92.20;;;;;;5022495;28;20076;-64
2021/08/09 05:06:57;;;;;;;3.03;1.50;;;12.80;91.90;;;;;;5021714;28;20030;-63
2021/08/09 05:09:22;;;;;;;1.60;1.50;;;12.80;91.90;;;;;;5022563;28;20025;-64
2021/08/09 05:11:48;;;;;;;1.88;1.50;;;12.80;91.90;;;;;;5024697;28;20470;-64
2021/08/09 05:14:14;;;;;;;1.40;1.30;;;12.90;91.80;;;;;;5024207;28;20041;-63
2021/08/09 05:16:41;;;;;;;1.60;1.50;;;12.90;91.70;;;;;;5026059;28;20048;-64
2021/08/09 05:19:08;;;;;;;1.38;1.27;;;13.00;91.60;;;;;;5025700;28;20609;-64
2021/08/09 05:21:35;;;;;;;1.20;1.10;;;13.00;91.60;;;;;;5027475;28;20029;-64
2021/08/09 05:24:02;;;;;;;2.63;1.30;;;12.90;91.70;;;;;;5027413;28;20038;-64
2021/08/09 05:26:28;;;;;;;2.22;1.60;;;13.00;91.80;;;;;;5024390;28;20044;-64
2021/08/09 05:28:55;;;;;;;1.92;1.50;;;13.10;91.70;;;;;;5026830;28;20029;-64
2021/08/09 05:31:21;;;;;;;1.45;1.35;;;13.00;91.90;;;;;;5022045;28;20120;-65
2021/08/09 05:33:47;;;;;;;1.70;1.60;;;13.10;92.10;;;;;;5036535;28;20148;-64
2021/08/09 05:36:13;;;;;;;1.75;1.48;;;13.10;92.20;;;;;;5023818;28;20535;-64
2021/08/09 05:38:39;;;;;;;1.83;1.73;;;13.10;92.30;;;;;;5024594;28;20022;-64
2021/08/09 05:41:05;;;;;;;1.58;1.40;;;13.20;92.30;;;;;;5006247;28;20394;-64
2021/08/09 05:43:31;;;;;;;5.90;1.70;;;13.20;92.60;;;;;;5027469;28;20030;-64
2021/08/09 05:45:57;;;;;;;3.10;1.75;;;13.30;92.30;;;;;;5024320;28;20036;-64
2021/08/09 05:48:22;;;;;;;2.45;2.05;;;13.30;92.70;;;;;;5027117;28;20021;-64
2021/08/09 05:50:48;;;;;;;1.80;1.70;;;13.30;92.70;;;;;;5027499;28;20040;-64
2021/08/09 05:53:13;;;;;;;5.30;1.70;;;13.40;92.70;;;;;;5030078;28;20029;-64
2021/08/09 05:55:39;;;;;;;2.33;1.70;;;13.50;92.60;;;;;;5030064;28;20029;-65
2021/08/09 05:58:05;;;;;;;3.72;1.90;;;13.50;92.60;;;;;;5036650;28;20076;-64
2021/08/09 06:00:31;;;;;;;1.80;1.50;;;13.60;92.50;;;;;;5027144;28;20052;-64
2021/08/09 06:02:56;;;;;;;1.70;1.60;;;13.70;92.40;;;;;;5011245;28;20105;-64
2021/08/09 06:05:22;;;;;;;2.70;2.17;;;13.80;92.60;;;;;;5010065;28;20478;-68
2021/08/09 06:07:48;;;;;;;2.33;1.70;;;14.00;92.80;;;;;;5010448;28;20033;-64
2021/08/09 06:10:13;;;;;;;2.50;2.00;;;14.00;92.50;;;;;;5009105;28;20105;-65
2021/08/09 06:12:39;;;;;;;1.75;1.65;;;14.20;92.70;;;;;;5012484;28;20156;-64
2021/08/09 06:15:07;;;;;;;2.45;1.70;;;14.30;92.50;;;;;;4994503;28;20025;-64
2021/08/09 06:17:34;;;;;;;2.27;1.67;;;14.30;92.50;;;;;;5016526;28;20635;-65
2021/08/09 06:20:00;;;;;;;3.25;1.60;;;14.40;92.30;;;;;;5015228;28;20033;-64
2021/08/09 06:22:25;;;;;;;2.63;1.73;;;14.50;92.60;;;;;;5011229;28;20022;-64
2021/08/09 06:24:51;;;;;;;3.55;1.90;;;14.60;92.40;;;;;;5015173;28;20033;-64
2021/08/09 06:27:17;;;;;;;1.77;1.67;;;14.60;91.90;;;;;;5010902;28;20030;-64
2021/08/09 06:29:42;;;;;;;3.97;1.83;;;14.70;91.80;;;;;;5011052;28;20136;-64
2021/08/09 06:32:08;;;;;;;1.73;1.50;;;14.80;91.80;;;;;;5008703;28;21659;-64
2021/08/09 06:34:33;;;;;;;2.38;2.17;;;14.90;91.60;;;;;;5011957;28;20026;-64
2021/08/09 06:36:59;;;;;;;2.22;2.08;;;14.90;91.00;;;;;;4995898;28;20037;-66
2021/08/09 06:39:25;;;;;;;2.03;1.70;;;15.00;90.90;;;;;;5018091;28;20017;-65
2021/08/09 06:41:51;;;;;;;1.73;1.63;;;15.00;90.80;;;;;;4995442;28;20124;-65
2021/08/09 06:44:16;;;;;;;3.15;1.70;;;15.10;91.00;;;;;;5008969;28;20033;-64
2021/08/09 06:46:42;;;;;;;2.17;2.00;;;15.20;90.90;;;;;;5010967;28;20113;-64
2021/08/09 06:49:07;;;;;;;6.22;2.35;;;15.30;90.90;;;;;;5013690;28;20049;-64
2021/08/09 06:51:33;;;;;;;1.90;1.55;;;15.40;90.80;;;;;;4991726;28;20132;-64
2021/08/09 06:53:59;;;;;;;2.35;2.00;;;15.50;90.60;;;;;;5010992;28;20022;-64
2021/08/09 06:56:24;;;;;;;2.08;1.77;;;15.60;90.80;;;;;;5010154;28;20440;-64
2021/08/09 06:58:50;;;;;;;2.20;1.52;;;15.70;88.40;;;;;;5009768;28;20042;-64
2021/08/09 07:01:16;;;;;;;2.45;1.60;;;15.80;87.80;;;;;;5010955;28;20038;-64
2021/08/09 07:03:46;;;;;;;1.65;1.50;;;15.80;85.90;;;;;;5013164;28;20058;-65
2021/08/09 07:06:22;;;;;;;2.80;1.70;;;15.90;85.80;;;;;;5013999;28;20022;-65
2021/08/09 07:08:49;;;;;;;2.55;1.67;;;16.00;87.00;;;;;;5015479;28;20026;-64
2021/08/09 07:11:16;;;;;;;2.72;1.77;;;16.10;85.60;;;;;;5017397;28;20025;-64
2021/08/09 07:13:41;;;;;;;3.17;1.42;;;16.10;86.70;;;;;;5008261;28;20655;-64
2021/08/09 07:16:07;;;;;;;1.85;1.58;;;16.20;86.70;;;;;;5017325;28;20033;-64
2021/08/09 07:18:33;;;;;;;3.08;1.70;;;16.30;85.60;;;;;;5005150;28;20494;-64
2021/08/09 07:21:00;;;;;;;1.75;1.58;;;16.30;83.50;;;;;;5006613;28;20083;-64
2021/08/09 07:23:26;;;;;;;1.92;1.65;;;16.50;84.20;;;;;;5001197;28;21520;-64
2021/08/09 07:25:52;;;;;;;1.58;1.48;;;16.50;84.20;;;;;;5004119;28;20088;-65
2021/08/09 07:28:18;;;;;;;1.60;1.50;;;16.60;83.50;;;;;;5003520;28;20086;-65
2021/08/09 07:30:43;;;;;;;1.52;1.40;;;16.70;83.70;;;;;;5007880;28;20103;-64
2021/08/09 07:33:09;;;;;;;1.50;1.40;;;16.70;82.00;;;;;;5005869;28;20125;-64
2021/08/09 07:35:35;;;;;;;3.17;1.80;;;16.80;82.10;;;;;;5016807;28;20467;-64
2021/08/09 07:38:00;;;;;;;5.57;1.80;;;16.90;83.90;;;;;;5002618;28;20520;-64
2021/08/09 07:40:26;;;;;;;1.88;1.30;;;17.00;83.40;;;;;;5005656;28;20071;-65
2021/08/09 07:42:52;;;;;;;1.38;1.27;;;17.10;82.30;;;;;;5007982;28;20021;-64
2021/08/09 07:45:17;;;;;;;2.53;1.17;;;17.30;82.00;;;;;;5005409;28;20036;-64
2021/08/09 07:47:43;;;;;;;1.33;1.23;;;17.30;78.70;;;;;;5007859;28;20030;-64
2021/08/09 07:50:09;;;;;;;2.58;1.20;;;17.30;78.90;;;;;;5004323;28;20041;-64
2021/08/09 07:52:35;;;;;;;1.35;1.27;;;17.40;76.90;;;;;;5006900;28;20454;-64
2021/08/09 07:55:01;;;;;;;2.38;1.30;;;17.40;75.40;;;;;;5006920;28;20896;-64
2021/08/09 07:57:27;;;;;;;2.00;1.35;;;17.40;75.30;;;;;;5011917;28;20042;-65
2021/08/09 07:59:53;;;;;;;1.67;1.15;;;17.50;76.00;;;;;;5012263;28;20046;-64
2021/08/09 08:02:20;;;;;;;3.25;1.08;;;17.60;75.10;;;;;;5009597;28;20041;-64
2021/08/09 08:04:45;;;;;;;1.52;1.10;;;17.70;75.80;;;;;;5010304;28;20435;-64
2021/08/09 08:07:11;;;;;;;1.75;0.98;;;17.70;70.80;;;;;;5010568;28;20041;-64
2021/08/09 08:09:37;;;;;;;1.52;0.93;;;17.80;72.60;;;;;;5009664;28;20034;-64
2021/08/09 08:12:03;;;;;;;1.77;0.75;;;17.90;71.40;;;;;;5009168;28;20057;-64
2021/08/09 08:14:29;;;;;;;2.80;1.33;;;18.00;71.80;;;;;;4992229;28;20096;-65
2021/08/09 08:16:55;;;;;;;2.35;0.90;;;18.10;73.10;;;;;;5006563;28;20042;-64
2021/08/09 08:19:21;;;;;;;2.05;0.98;;;18.20;72.30;;;;;;5005515;28;20025;-65
2021/08/09 08:21:47;;;;;;;1.20;1.10;;;18.30;72.00;;;;;;5010735;28;20021;-65
2021/08/09 08:24:13;;;;;;;2.28;1.55;;;18.40;69.60;;;;;;5008528;28;20375;-64
2021/08/09 08:26:39;;;;;;;1.23;0.95;;;18.40;68.60;;;;;;5010853;28;20099;-65
2021/08/09 08:29:04;;;;;;;2.28;1.00;;;18.40;70.80;;;;;;5005679;28;20030;-65
2021/08/09 08:31:30;;;;;;;2.08;1.52;;;18.60;71.50;;;;;;5005548;28;20044;-64
2021/08/09 08:33:56;;;;;;;1.00;1.00;;;18.60;71.50;;;;;;5006764;28;20038;-65
2021/08/09 08:36:22;;;;;;;1.10;1.00;;;18.80;70.80;;;;;;5009600;28;20025;-65
2021/08/09 08:38:48;;;;;;;1.13;1.02;;;18.80;70.40;;;;;;5011206;28;20022;-64
2021/08/09 08:41:16;;;;;;;1.35;1.25;;;18.80;69.40;;;;;;4994421;28;20037;-64
2021/08/09 08:43:42;;;;;;;1.40;1.20;;;18.90;71.80;;;;;;5012327;28;20061;-64
2021/08/09 08:46:08;;;;;;;1.23;1.13;;;19.00;73.10;;;;;;5007455;28;20146;-65
2021/08/09 08:48:36;;;;;;;1.88;1.05;;;19.20;73.80;;;;;;5012325;28;20127;-64
2021/08/09 08:51:02;;;;;;;2.30;1.27;;;19.20;70.30;;;;;;5012060;28;20022;-65
2021/08/09 08:53:30;;;;;;;2.50;1.05;;;19.30;71.90;;;;;;5011667;28;20052;-64
2021/08/09 08:55:56;;;;;;;1.17;1.17;;;19.40;73.10;;;;;;5028111;28;20030;-65
2021/08/09 08:58:22;;;;;;;1.55;1.30;;;19.40;71.50;;;;;;5011689;28;20053;-65
2021/08/09 09:00:49;;;;;;;1.65;1.55;;;19.40;70.10;;;;;;5005763;28;20029;-64
2021/08/09 09:03:22;;;;;;;1.20;1.20;;;19.60;71.00;;;;;;5006961;28;20026;-65
2021/08/09 09:06:01;;;;;;;1.20;1.10;;;19.60;72.30;;;;;;5006042;28;20276;-65
2021/08/09 09:08:46;;;;;;;1.35;1.10;;;19.60;69.40;;;;;;5008863;28;20557;-65
2021/08/09 09:11:14;;;;;;;1.33;1.10;;;19.60;72.80;;;;;;5006087;28;20046;-65
2021/08/09 09:13:53;;;;;;;;;;;19.60;69.50;;;;;;4992207;28;21911;-65
2021/08/09 09:16:18;;;;;;;1.50;1.10;;;19.60;68.40;;;;;;5007234;28;19920;-65
2021/08/09 09:18:56;;;;;;;1.20;1.08;;;19.70;69.30;;;;;;5007940;28;20550;-65
2021/08/09 09:21:30;;;;;;;3.60;2.10;;;19.80;67.80;;;;;;4990840;28;20109;-65
2021/08/09 09:24:18;;;;;;;1.85;1.17;;;19.80;66.30;;;;;;5010103;28;20054;-65
2021/08/09 09:26:51;;;;;;;1.95;1.20;;;19.80;68.00;;;;;;5005028;28;20069;-65
2021/08/09 09:29:18;;;;;;;2.05;1.13;;;20.00;69.60;;;;;;5010755;28;20044;-65
2021/08/09 09:31:45;;;;;;;2.95;1.20;;;20.10;69.00;;;;;;5001425;28;20038;-65
2021/08/09 09:34:13;;;;;;;2.70;1.25;;;20.00;66.60;;;;;;5027715;28;20024;-65
2021/08/09 09:36:48;;;;;;;1.75;1.17;;;20.10;68.00;;;;;;5024591;28;20108;-65
2021/08/09 09:39:35;;;;;;;4.22;1.30;;;20.20;67.90;;;;;;5025894;28;20536;-66
2021/08/09 09:42:09;;;;;;;2.40;1.13;;;20.30;65.80;;;;;;5022539;28;20029;-65
2021/08/09 09:44:37;;;;;;;1.15;1.00;;;20.40;63.50;;;;;;5023102;28;20041;-65
2021/08/09 09:47:32;;;;;;;1.48;1.00;;;20.40;64.30;;;;;;5020629;28;20025;-65
2021/08/09 09:49:59;;;;;;;3.40;1.10;;;20.40;64.10;;;;;;5019938;28;20045;-64
2021/08/09 09:52:45;;;;;;;1.75;1.23;;;20.50;62.40;;;;;;5019839;28;20075;-65
2021/08/09 09:55:14;;;;;;;0.82;0.82;;;20.60;61.60;;;;;;5022633;28;20033;-65
2021/08/09 09:57:46;;;;;;;1.83;0.98;;;20.60;61.20;;;;;;5028013;28;20049;-65
2021/08/09 10:00:17;;;;;;;3.10;1.25;;;20.60;60.30;;;;;;5008375;28;20037;-65
2021/08/09 10:02:47;;;;;;;1.13;1.02;;;20.60;62.50;;;;;;5023627;28;20044;-64
2021/08/09 10:05:15;;;;;;;1.73;1.00;;;20.50;62.80;;;;;;5036893;28;20056;-64
2021/08/09 10:07:45;;;;;;;1.70;1.23;;;20.60;62.40;;;;;;5028274;28;20041;-65
2021/08/09 10:10:10;;;;;;;1.15;1.00;;;20.60;61.70;;;;;;5021487;28;20053;-65
2021/08/09 10:12:38;;;;;;;1.08;0.75;;;20.60;59.10;;;;;;5025020;28;20529;-64
2021/08/09 10:15:05;;;;;;;1.08;1.00;;;20.70;60.00;;;;;;5030072;28;20061;-66
2021/08/09 10:17:31;;;;;;;0.90;0.90;;;20.70;59.00;;;;;;5030020;28;20043;-64
2021/08/09 10:20:01;;;;;;;1.40;1.05;;;20.80;59.90;;;;;;5031863;28;20037;-65
2021/08/09 10:22:27;;;;;;;1.50;1.02;;;20.90;59.50;;;;;;5031288;28;20033;-64
2021/08/09 10:24:55;;;;;;;1.48;1.00;;;20.90;58.80;;;;;;5033345;28;20037;-64
2021/08/09 10:27:45;;;;;;;0.90;0.90;;;21.00;61.50;;;;;;5031101;28;20108;-65
2021/08/09 10:30:12;;;;;;;1.08;1.00;;;21.10;58.40;;;;;;5028481;28;20505;-64
2021/08/09 10:32:45;;;;;;;1.20;1.10;;;21.10;60.30;;;;;;5031669;28;20413;-65
2021/08/09 10:35:33;;;;;;;1.90;1.13;;;21.10;61.20;;;;;;5033361;28;20331;-63
2021/08/09 10:38:16;;;;;;;;;;;21.20;62.70;;;;;;5027537;28;20025;-64
2021/08/09 10:40:54;;;;;;;1.20;1.10;;;21.30;60.50;;;;;;5028403;28;19939;-64
2021/08/09 10:43:20;;;;;;;3.05;1.30;;;21.30;61.60;;;;;;5033290;28;20115;-64
2021/08/09 10:45:48;;;;;;;2.58;1.10;;;21.30;62.80;;;;;;5033105;28;20553;-64
2021/08/09 10:48:14;;;;;;;1.85;1.02;;;21.30;61.60;;;;;;5026897;28;20030;-64
2021/08/09 10:50:43;;;;;;;4.22;1.00;;;21.30;61.80;;;;;;5030638;28;20023;-64
2021/08/09 10:53:28;;;;;;;1.52;0.88;;;21.40;61.30;;;;;;5030961;28;20026;-65
2021/08/09 10:55:58;;;;;;;1.40;1.13;;;21.40;62.40;;;;;;5028044;28;20049;-64
2021/08/09 10:58:42;;;;;;;2.47;1.50;;;21.40;61.20;;;;;;5030367;28;20394;-64
2021/08/09 11:01:09;;;;;;;0.75;0.70;;;21.50;63.10;;;;;;5023797;28;20036;-64
2021/08/09 11:03:34;;;;;;;0.98;0.88;;;21.50;60.00;;;;;;5009124;28;20123;-65
2021/08/09 11:06:55;;;;;;;1.33;0.80;;;21.50;62.10;;;;;;5015175;28;20065;-64
2021/08/09 11:09:33;;;;;;;2.63;1.17;;;21.40;58.50;;;;;;5008180;28;20049;-64
2021/08/09 11:12:12;;;;;;;1.40;1.25;;;21.50;61.10;;;;;;5011122;28;20018;-64
2021/08/09 11:15:18;;;;;;;1.80;1.00;;;21.40;59.80;;;;;;5014099;28;20026;-64
2021/08/09 11:17:53;;;;;;;1.70;1.33;;;21.40;58.70;;;;;;5007811;28;20061;-65
2021/08/09 11:20:23;;;;;;;1.85;1.27;;;21.50;62.90;;;;;;5011527;28;20566;-64
2021/08/09 11:22:58;;;;;;;2.80;1.00;;;21.50;60.60;;;;;;5016058;28;20470;-64
2021/08/09 11:25:35;;;;;;;2.05;1.17;;;21.70;62.00;;;;;;5011126;28;20034;-63
2021/08/09 11:28:08;;;;;;;1.35;1.10;;;21.60;60.80;;;;;;5012856;28;20054;-64
2021/08/09 11:30:47;;;;;;;1.63;1.10;;;21.70;60.70;;;;;;5006667;28;20173;-64
2021/08/09 11:33:25;;;;;;;1.75;1.10;;;21.80;59.70;;;;;;5003587;28;20029;-64
2021/08/09 11:35:52;;;;;;;1.33;1.02;;;21.90;59.80;;;;;;5008808;28;20426;-64
2021/08/09 11:38:18;;;;;;;1.15;0.95;;;21.80;61.20;;;;;;5009412;28;20532;-64
2021/08/09 11:40:48;;;;;;;2.35;1.00;;;21.70;60.00;;;;;;5009549;28;20736;-64
2021/08/09 11:43:25;;;;;;;1.55;1.27;;;21.60;58.90;;;;;;5012203;28;20034;-64
2021/08/09 11:45:52;;;;;;;2.80;1.25;;;21.50;62.30;;;;;;5016066;28;20030;-65
2021/08/09 11:48:26;;;;;;;2.72;1.17;;;21.60;62.30;;;;;;5011371;28;20069;-64
2021/08/09 11:51:04;;;;;;;2.67;1.10;;;21.60;61.50;;;;;;5011532;28;20079;-64
2021/08/09 11:53:29;;;;;;;2.50;1.10;;;21.60;60.20;;;;;;5009117;28;20049;-64
2021/08/09 11:56:08;;;;;;;0.90;0.90;;;21.70;60.20;;;;;;5010056;28;20153;-64
2021/08/09 11:58:34;;;;;;;1.17;1.10;;;21.80;59.00;;;;;;5008767;28;20030;-64
2021/08/09 12:01:00;;;;;;;0.98;0.90;;;21.80;60.60;;;;;;5016149;28;20053;-64
2021/08/09 12:03:27;;;;;;;2.90;1.10;;;21.80;59.20;;;;;;5021111;28;20715;-64
2021/08/09 12:05:55;;;;;;;4.55;1.92;;;21.90;63.30;;;;;;5016431;28;20116;-64
2021/08/09 12:08:23;;;;;;;1.30;1.20;;;22.00;59.00;;;;;;5017618;28;20379;-64
2021/08/09 12:10:49;;;;;;;1.40;1.30;;;22.00;61.10;;;;;;5016955;28;20029;-64
2021/08/09 12:13:31;;;;;;;2.08;1.20;;;22.00;57.30;;;;;;5015853;28;20483;-64
2021/08/09 12:16:12;;;;;;;2.72;1.13;;;22.00;59.70;;;;;;5023804;28;20471;-64
2021/08/09 12:18:39;;;;;;;1.67;0.80;;;22.00;57.20;;;;;;5012445;28;20025;-65
2021/08/09 12:21:13;;;;;;;0.98;0.75;;;22.10;56.30;;;;;;5019397;28;20025;-64
2021/08/09 12:23:56;;;;;;;1.00;1.00;;;22.00;55.30;;;;;;5012494;28;20045;-64
2021/08/09 12:26:25;;;;;;;1.73;1.00;;;21.90;56.60;;;;;;5013906;28;20025;-64
2021/08/09 12:28:59;;;;;;;1.38;0.98;;;21.90;56.50;;;;;;5015870;28;20046;-64
2021/08/09 12:31:40;;;;;;;1.05;0.95;;;21.90;55.80;;;;;;5023019;28;20038;-64
2021/08/09 12:34:08;;;;;;;0.80;0.80;;;21.80;57.60;;;;;;5028198;28;20022;-65
2021/08/09 12:36:36;;;;;;;1.50;0.90;;;21.80;56.00;;;;;;5029817;28;20378;-64
2021/08/09 12:39:03;;;;;;;1.23;1.05;;;21.70;57.80;;;;;;5031307;28;20044;-64
2021/08/09 12:41:30;;;;;;;1.00;1.00;;;21.80;58.20;;;;;;5030800;28;20028;-64
2021/08/09 12:43:58;;;;;;;2.63;1.25;;;21.80;57.60;;;;;;5027135;28;20458;-64
2021/08/09 12:46:24;;;;;;;1.05;1.05;;;21.90;57.60;;;;;;5029462;28;20509;-64
2021/08/09 12:48:52;;;;;;;1.33;1.20;;;21.90;56.90;;;;;;5029678;28;20033;-64
2021/08/09 12:51:19;;;;;;;1.20;1.10;;;21.80;56.30;;;;;;5028525;28;20360;-64
2021/08/09 12:53:46;;;;;;;1.08;0.90;;;21.80;56.70;;;;;;5031996;28;20033;-65
2021/08/09 12:56:11;;;;;;;1.77;1.17;;;21.70;57.00;;;;;;5028860;28;20908;-64